createdAt,value
2022-08-26T00:00:20.847Z,71.19
2022-08-26T00:01:24.335Z,71.11
2022-08-26T00:02:32.793Z,71.06
2022-08-26T00:03:36.694Z,71.21
2022-08-26T00:04:39.481Z,71.01
2022-08-26T00:05:43.619Z,70.81
2022-08-26T00:06:46.547Z,70.36
2022-08-26T00:07:50.146Z,70.49
2022-08-26T00:08:54.501Z,70.01
2022-08-26T00:09:57.562Z,70.74
2022-08-26T00:11:00.953Z,71.09
2022-08-26T00:12:05.878Z,70.83
2022-08-26T00:13:10.448Z,71.01
2022-08-26T00:14:14.080Z,71.41
2022-08-26T00:15:20.973Z,71.61
2022-08-26T00:16:26.005Z,71.52
2022-08-26T00:17:28.980Z,71.22
2022-08-26T00:18:33.185Z,71.33
2022-08-26T00:19:41.642Z,71.20
2022-08-26T00:20:44.684Z,71.66
2022-08-26T00:21:48.643Z,71.69
2022-08-26T00:22:52.690Z,72.07
2022-08-26T00:23:55.558Z,72.13
2022-08-26T00:24:58.535Z,72.14
2022-08-26T00:26:02.595Z,72.09
2022-08-26T00:27:06.386Z,72.22
2022-08-26T00:28:10.829Z,72.05
2022-08-26T00:29:14.779Z,73.04
2022-08-26T00:30:24.161Z,72.78
2022-08-26T00:31:31.120Z,72.85
2022-08-26T00:32:34.940Z,72.50
2022-08-26T00:33:40.734Z,72.20
2022-08-26T00:34:47.158Z,72.78
2022-08-26T00:35:51.560Z,72.60
2022-08-26T00:36:54.818Z,72.19
2022-08-26T00:37:58.062Z,72.57
2022-08-26T00:39:00.940Z,72.47
2022-08-26T00:40:07.661Z,72.20
2022-08-26T00:41:14.442Z,72.56
2022-08-26T00:42:19.985Z,72.50
2022-08-26T00:43:25.703Z,73.09
2022-08-26T00:44:28.501Z,72.73
2022-08-26T00:45:47.479Z,72.53
2022-08-26T00:46:56.114Z,72.23
2022-08-26T00:48:03.802Z,72.08
2022-08-26T00:49:44.556Z,72.59
2022-08-26T00:51:03.630Z,72.53
2022-08-26T00:52:14.866Z,72.67
2022-08-26T00:53:26.039Z,72.79
2022-08-26T00:54:36.314Z,72.47
2022-08-26T00:55:45.311Z,72.81
2022-08-26T00:57:02.753Z,72.35
2022-08-26T00:58:08.476Z,72.10
2022-08-26T00:59:13.499Z,71.74
2022-08-26T01:00:24.288Z,73.08
2022-08-26T01:01:28.678Z,72.31
2022-08-26T01:02:33.641Z,72.59
2022-08-26T01:03:39.435Z,72.96
2022-08-26T01:04:43.214Z,73.27
2022-08-26T01:05:48.546Z,72.50
2022-08-26T01:06:54.731Z,72.81
2022-08-26T01:07:57.476Z,72.40
2022-08-26T01:09:00.333Z,72.68
2022-08-26T01:10:06.959Z,72.28
2022-08-26T01:11:12.767Z,72.93
2022-08-26T01:12:15.743Z,72.47
2022-08-26T01:13:25.601Z,72.82
2022-08-26T01:14:33.000Z,72.63
2022-08-26T01:15:49.471Z,72.33
2022-08-26T01:16:53.312Z,72.46
2022-08-26T01:17:58.572Z,72.15
2022-08-26T01:19:16.052Z,71.86
2022-08-26T01:20:57.663Z,71.79
2022-08-26T01:22:10.474Z,71.89
2022-08-26T01:23:15.351Z,72.23
2022-08-26T01:24:18.831Z,71.70
2022-08-26T01:25:24.260Z,72.42
2022-08-26T01:26:35.479Z,72.29
2022-08-26T01:27:39.010Z,71.96
2022-08-26T01:28:42.925Z,72.13
2022-08-26T01:29:49.554Z,72.76
2022-08-26T01:30:55.211Z,72.83
2022-08-26T01:32:02.200Z,72.76
2022-08-26T01:33:15.397Z,72.91
2022-08-26T01:34:22.482Z,72.16
2022-08-26T01:35:25.672Z,72.49
2022-08-26T01:36:29.183Z,72.65
2022-08-26T01:37:40.326Z,72.72
2022-08-26T01:38:45.042Z,72.41
2022-08-26T01:39:54.055Z,72.66
2022-08-26T01:40:57.436Z,72.79
2022-08-26T01:42:03.188Z,73.16
2022-08-26T01:43:09.063Z,72.94
2022-08-26T01:44:21.603Z,73.40
2022-08-26T01:45:28.785Z,72.98
2022-08-26T01:46:32.724Z,72.58
2022-08-26T01:47:38.121Z,72.21
2022-08-26T01:48:43.045Z,72.43
2022-08-26T01:49:50.797Z,72.59
2022-08-26T01:50:54.931Z,72.30
2022-08-26T01:51:59.192Z,72.49
2022-08-26T01:53:06.708Z,72.63
2022-08-26T01:54:12.027Z,73.40
2022-08-26T01:55:33.303Z,73.38
2022-08-26T01:56:37.074Z,73.16
2022-08-26T01:57:40.571Z,72.60
2022-08-26T01:58:52.834Z,72.80
2022-08-26T02:00:00.306Z,72.99
2022-08-26T02:01:04.132Z,72.52
2022-08-26T02:02:11.203Z,72.94
2022-08-26T02:03:17.510Z,72.92
2022-08-26T02:04:32.564Z,72.88
2022-08-26T02:05:35.704Z,72.82
2022-08-26T02:06:39.477Z,72.47
2022-08-26T02:07:45.057Z,72.93
2022-08-26T02:08:52.556Z,72.37
2022-08-26T02:09:55.774Z,72.29
2022-08-26T02:10:58.711Z,71.93
2022-08-26T02:12:02.103Z,71.98
2022-08-26T02:13:08.394Z,72.02
2022-08-26T02:14:34.877Z,71.80
2022-08-26T02:15:44.783Z,71.89
2022-08-26T02:16:50.956Z,71.75
2022-08-26T02:17:54.169Z,71.61
2022-08-26T02:19:01.997Z,70.99
2022-08-26T02:20:07.626Z,70.83
2022-08-26T02:21:17.473Z,71.17
2022-08-26T02:22:23.015Z,71.23
2022-08-26T02:23:27.784Z,70.77
2022-08-26T02:24:49.673Z,70.63
2022-08-26T02:25:52.434Z,70.47
2022-08-26T02:26:57.869Z,71.05
2022-08-26T02:28:00.993Z,71.06
2022-08-26T02:29:13.532Z,70.68
2022-08-26T02:30:27.344Z,71.07
2022-08-26T02:31:31.471Z,70.92
2022-08-26T02:32:35.126Z,70.50
2022-08-26T02:33:38.429Z,70.72
2022-08-26T02:34:46.311Z,71.36
2022-08-26T02:35:49.258Z,71.51
2022-08-26T02:36:52.150Z,71.11
2022-08-26T02:37:55.198Z,71.24
2022-08-26T02:38:59.664Z,71.12
2022-08-26T02:40:02.741Z,70.85
2022-08-26T02:41:06.183Z,70.88
2022-08-26T02:42:11.639Z,70.77
2022-08-26T02:43:14.443Z,70.71
2022-08-26T02:44:17.785Z,70.76
2022-08-26T02:45:25.270Z,70.74
2022-08-26T02:46:30.144Z,70.47
2022-08-26T02:47:34.288Z,69.76
2022-08-26T02:48:37.775Z,69.84
2022-08-26T02:49:44.374Z,69.37
2022-08-26T02:50:50.046Z,69.47
2022-08-26T02:51:53.326Z,69.74
2022-08-26T02:52:56.504Z,69.07
2022-08-26T02:53:59.327Z,68.17
2022-08-26T02:55:02.252Z,67.98
2022-08-26T02:56:07.949Z,68.57
2022-08-26T02:57:11.847Z,66.52
2022-08-26T02:58:15.622Z,67.98
2022-08-26T02:59:18.973Z,67.63
2022-08-26T03:00:22.059Z,66.51
2022-08-26T03:01:31.759Z,66.88
2022-08-26T03:02:34.895Z,66.01
2022-08-26T03:03:37.663Z,66.12
2022-08-26T03:04:41.643Z,65.67
2022-08-26T03:06:01.571Z,65.60
2022-08-26T03:07:05.001Z,65.13
2022-08-26T03:08:12.038Z,64.17
2022-08-26T03:09:18.667Z,64.48
2022-08-26T03:10:21.992Z,64.97
2022-08-26T03:11:25.527Z,65.40
2022-08-26T03:12:31.613Z,64.69
2022-08-26T03:13:36.617Z,65.58
2022-08-26T03:14:39.528Z,65.25
2022-08-26T03:15:47.656Z,64.85
2022-08-26T03:16:54.340Z,64.28
2022-08-26T03:17:57.199Z,65.04
2022-08-26T03:19:00.499Z,64.69
2022-08-26T03:21:15.841Z,67.29
2022-08-26T03:22:21.123Z,66.58
2022-08-26T03:23:24.006Z,65.26
2022-08-26T03:24:26.957Z,64.68
2022-08-26T03:25:29.767Z,64.16
2022-08-26T03:26:32.555Z,63.64
2022-08-26T03:27:35.404Z,65.39
2022-08-26T03:28:58.879Z,65.55
2022-08-26T03:30:20.760Z,65.10
2022-08-26T03:31:24.630Z,65.01
2022-08-26T03:32:27.590Z,64.09
2022-08-26T03:33:35.233Z,64.81
2022-08-26T03:34:38.701Z,64.49
2022-08-26T03:35:43.761Z,63.89
2022-08-26T03:36:50.465Z,64.22
2022-08-26T03:37:54.124Z,64.27
2022-08-26T03:38:57.284Z,64.38
2022-08-26T03:40:01.315Z,64.28
2022-08-26T03:41:04.189Z,64.45
2022-08-26T03:42:10.799Z,64.41
2022-08-26T03:43:16.191Z,65.13
2022-08-26T03:44:19.057Z,65.07
2022-08-26T03:45:22.315Z,64.59
2022-08-26T03:46:25.468Z,64.29
2022-08-26T03:47:31.023Z,63.79
2022-08-26T03:48:34.376Z,63.53
2022-08-26T03:49:38.198Z,63.54
2022-08-26T03:50:42.779Z,64.01
2022-08-26T03:51:46.019Z,63.93
2022-08-26T03:52:49.194Z,64.13
2022-08-26T03:53:52.063Z,63.45
2022-08-26T03:54:55.070Z,63.47
2022-08-26T03:55:58.058Z,63.17
2022-08-26T03:57:00.949Z,63.60
2022-08-26T03:58:04.374Z,63.54
2022-08-26T03:59:07.807Z,63.17
2022-08-26T04:00:18.376Z,63.05
2022-08-26T04:01:21.443Z,63.54
2022-08-26T04:02:24.750Z,63.64
2022-08-26T04:03:46.941Z,62.83
2022-08-26T04:04:49.697Z,62.90
2022-08-26T04:05:56.263Z,63.12
2022-08-26T04:07:00.164Z,63.65
2022-08-26T04:08:07.321Z,63.18
2022-08-26T04:09:13.776Z,62.85
2022-08-26T04:10:20.361Z,62.74
2022-08-26T04:11:27.043Z,63.29
2022-08-26T04:12:30.160Z,63.47
2022-08-26T04:13:33.924Z,63.40
2022-08-26T04:14:37.845Z,63.54
2022-08-26T04:15:42.049Z,63.05
2022-08-26T04:16:45.863Z,62.24
2022-08-26T04:17:50.039Z,61.66
2022-08-26T04:18:53.168Z,62.27
2022-08-26T04:19:56.099Z,62.89
2022-08-26T04:21:00.059Z,62.84
2022-08-26T04:22:03.152Z,62.55
2022-08-26T04:23:06.131Z,62.52
2022-08-26T04:24:11.906Z,62.63
2022-08-26T04:25:15.315Z,62.73
2022-08-26T04:26:20.762Z,62.90
2022-08-26T04:27:24.181Z,62.88
2022-08-26T04:28:29.193Z,62.56
2022-08-26T04:29:31.999Z,61.89
2022-08-26T04:30:38.860Z,62.23
2022-08-26T04:31:42.295Z,62.63
2022-08-26T04:32:45.831Z,63.46
2022-08-26T04:33:50.112Z,63.37
2022-08-26T04:34:52.901Z,63.41
2022-08-26T04:36:05.789Z,63.57
2022-08-26T04:37:09.172Z,64.14
2022-08-26T04:38:17.004Z,64.62
2022-08-26T04:39:20.998Z,64.95
2022-08-26T04:40:24.583Z,65.86
2022-08-26T04:41:31.528Z,65.86
2022-08-26T04:42:34.827Z,66.09
2022-08-26T04:43:38.376Z,66.34
2022-08-26T04:44:41.816Z,66.51
2022-08-26T04:45:44.996Z,65.82
2022-08-26T04:46:48.411Z,65.96
2022-08-26T04:47:59.351Z,65.58
2022-08-26T04:49:02.877Z,65.57
2022-08-26T04:50:07.521Z,65.59
2022-08-26T04:51:10.875Z,66.15
2022-08-26T04:52:13.950Z,67.04
2022-08-26T04:53:16.795Z,67.73
2022-08-26T04:54:20.330Z,67.60
2022-08-26T04:55:38.261Z,68.26
2022-08-26T04:56:45.033Z,68.40
2022-08-26T04:57:48.219Z,67.44
2022-08-26T04:58:51.229Z,67.60
2022-08-26T04:59:57.381Z,67.62
2022-08-26T05:01:00.599Z,68.00
2022-08-26T05:02:04.056Z,68.40
2022-08-26T05:03:10.491Z,68.67
2022-08-26T05:04:16.305Z,68.65
2022-08-26T05:05:22.011Z,68.37
2022-08-26T05:06:26.205Z,69.28
2022-08-26T05:07:29.582Z,70.05
2022-08-26T05:08:34.792Z,70.56
2022-08-26T05:09:40.671Z,70.26
2022-08-26T05:10:54.796Z,69.87
2022-08-26T05:11:59.532Z,71.08
2022-08-26T05:13:03.709Z,70.89
2022-08-26T05:14:13.768Z,68.76
2022-08-26T05:15:16.717Z,70.42
2022-08-26T05:16:20.189Z,71.35
2022-08-26T05:17:23.332Z,70.48
2022-08-26T05:18:27.886Z,70.60
2022-08-26T05:19:31.613Z,70.95
2022-08-26T05:20:45.172Z,70.89
2022-08-26T05:21:50.155Z,70.21
2022-08-26T05:22:53.016Z,69.31
2022-08-26T05:23:57.041Z,69.57
2022-08-26T05:24:59.892Z,69.37
2022-08-26T05:26:07.036Z,69.72
2022-08-26T05:27:11.480Z,69.85
2022-08-26T05:28:17.159Z,70.48
2022-08-26T05:29:19.970Z,69.85
2022-08-26T05:30:23.288Z,69.69
2022-08-26T05:31:32.235Z,70.29
2022-08-26T05:32:35.103Z,70.29
2022-08-26T05:33:37.969Z,69.93
2022-08-26T05:34:44.305Z,70.45
2022-08-26T05:35:48.893Z,69.69
2022-08-26T05:36:52.732Z,68.33
2022-08-26T05:37:55.444Z,68.41
2022-08-26T05:38:58.643Z,68.79
2022-08-26T05:40:04.434Z,70.45
2022-08-26T05:41:16.628Z,70.39
2022-08-26T05:42:20.314Z,69.93
2022-08-26T05:43:23.055Z,68.99
2022-08-26T05:44:26.007Z,70.15
2022-08-26T05:45:28.809Z,69.40
2022-08-26T05:46:31.902Z,68.78
2022-08-26T05:47:34.779Z,67.94
2022-08-26T05:48:38.313Z,67.34
2022-08-26T05:49:49.268Z,66.36
2022-08-26T05:50:54.762Z,65.83
2022-08-26T05:51:57.834Z,65.80
2022-08-26T05:53:01.032Z,66.68
2022-08-26T05:54:08.326Z,64.77
2022-08-26T05:55:13.543Z,63.30
2022-08-26T05:56:16.666Z,64.73
2022-08-26T05:57:19.470Z,65.56
2022-08-26T05:58:27.474Z,64.86
2022-08-26T05:59:30.661Z,65.83
2022-08-26T06:00:35.302Z,67.04
2022-08-26T06:01:39.986Z,63.24
2022-08-26T06:02:43.009Z,62.96
2022-08-26T06:03:49.004Z,63.21
2022-08-26T06:04:51.965Z,63.49
2022-08-26T06:05:55.434Z,64.29
2022-08-26T06:06:58.840Z,63.99
2022-08-26T06:08:19.390Z,65.06
2022-08-26T06:09:22.443Z,66.54
2022-08-26T06:10:32.622Z,65.94
2022-08-26T06:11:35.783Z,65.07
2022-08-26T06:12:39.541Z,64.21
2022-08-26T06:13:42.870Z,61.63
2022-08-26T06:14:45.680Z,61.56
2022-08-26T06:15:52.043Z,63.66
2022-08-26T06:16:55.233Z,63.41
2022-08-26T06:17:58.112Z,63.51
2022-08-26T06:19:03.708Z,62.94
2022-08-26T06:20:13.832Z,61.14
2022-08-26T06:21:27.407Z,58.20
2022-08-26T06:23:02.680Z,58.32
2022-08-26T06:24:32.592Z,58.39
2022-08-26T06:25:39.177Z,57.88
2022-08-26T06:26:50.352Z,57.92
2022-08-26T06:27:53.614Z,56.07
2022-08-26T06:28:56.809Z,57.11
2022-08-26T06:29:59.587Z,57.83
2022-08-26T06:31:04.026Z,58.85
2022-08-26T06:32:07.370Z,58.25
2022-08-26T06:33:11.773Z,61.09
2022-08-26T06:34:14.990Z,58.30
2022-08-26T06:35:18.471Z,57.77
2022-08-26T06:36:25.639Z,57.64
2022-08-26T06:37:28.710Z,52.30
2022-08-26T06:38:32.135Z,53.26
2022-08-26T06:39:35.420Z,52.91
2022-08-26T06:40:49.005Z,53.61
2022-08-26T06:41:52.309Z,53.04
2022-08-26T06:42:55.119Z,52.87
2022-08-26T06:43:58.610Z,51.70
2022-08-26T06:45:01.682Z,49.71
2022-08-26T06:46:11.670Z,48.10
2022-08-26T06:47:14.779Z,48.26
2022-08-26T06:48:21.132Z,49.99
2022-08-26T06:49:26.516Z,51.25
2022-08-26T06:50:30.384Z,48.93
2022-08-26T06:51:36.498Z,49.50
2022-08-26T06:52:42.258Z,47.06
2022-08-26T06:53:47.293Z,47.05
2022-08-26T06:54:51.170Z,48.47
2022-08-26T06:55:54.046Z,47.89
2022-08-26T06:56:57.407Z,47.20
2022-08-26T06:58:00.190Z,47.55
2022-08-26T06:59:04.364Z,47.52
2022-08-26T07:00:11.911Z,46.97
2022-08-26T07:01:23.769Z,46.47
2022-08-26T07:02:28.528Z,46.01
2022-08-26T07:03:31.692Z,45.19
2022-08-26T07:04:42.435Z,45.56
2022-08-26T07:05:45.502Z,46.93
2022-08-26T07:06:50.337Z,43.84
2022-08-26T07:07:58.250Z,44.39
2022-08-26T07:09:05.300Z,43.04
2022-08-26T07:10:08.920Z,45.28
2022-08-26T07:11:12.510Z,45.48
2022-08-26T07:12:15.387Z,45.57
2022-08-26T07:13:18.541Z,45.27
2022-08-26T07:14:34.955Z,44.80
2022-08-26T07:15:42.464Z,42.58
2022-08-26T07:16:45.352Z,42.52
2022-08-26T07:17:48.235Z,42.75
2022-08-26T07:18:53.303Z,41.71
2022-08-26T07:19:56.258Z,42.40
2022-08-26T07:21:01.882Z,43.05
2022-08-26T07:22:06.764Z,42.51
2022-08-26T07:23:11.791Z,41.79
2022-08-26T07:24:15.714Z,42.07
2022-08-26T07:25:19.461Z,41.82
2022-08-26T07:26:26.427Z,42.06
2022-08-26T07:27:31.436Z,41.09
2022-08-26T07:28:34.527Z,40.32
2022-08-26T07:29:39.647Z,42.31
2022-08-26T07:30:42.781Z,42.02
2022-08-26T07:31:46.154Z,38.82
2022-08-26T07:32:52.606Z,39.09
2022-08-26T07:33:55.480Z,42.44
2022-08-26T07:34:58.641Z,41.04
2022-08-26T07:36:01.650Z,41.43
2022-08-26T07:37:08.756Z,41.39
2022-08-26T07:38:13.522Z,40.26
2022-08-26T07:39:16.966Z,40.77
2022-08-26T07:40:19.934Z,39.95
2022-08-26T07:41:24.953Z,37.91
2022-08-26T07:42:27.765Z,37.85
2022-08-26T07:43:31.166Z,38.69
2022-08-26T07:44:35.145Z,40.07
2022-08-26T07:45:38.332Z,39.56
2022-08-26T07:46:41.772Z,38.54
2022-08-26T07:47:48.030Z,39.34
2022-08-26T07:48:51.687Z,38.07
2022-08-26T07:49:58.486Z,37.93
2022-08-26T07:51:01.560Z,37.80
2022-08-26T07:52:06.176Z,37.51
2022-08-26T07:53:10.766Z,37.33
2022-08-26T07:54:13.805Z,37.43
2022-08-26T07:55:17.729Z,37.22
2022-08-26T07:56:24.371Z,37.59
2022-08-26T07:57:28.755Z,37.41
2022-08-26T07:58:32.087Z,37.75
2022-08-26T07:59:34.912Z,38.26
2022-08-26T08:00:37.884Z,38.45
2022-08-26T08:01:41.124Z,38.71
2022-08-26T08:02:47.805Z,38.00
2022-08-26T08:03:54.029Z,38.15
2022-08-26T08:04:58.166Z,37.53
2022-08-26T08:06:01.149Z,37.95
2022-08-26T08:07:04.094Z,37.82
2022-08-26T08:08:26.988Z,39.59
2022-08-26T08:09:30.802Z,39.15
2022-08-26T08:10:36.735Z,38.81
2022-08-26T08:11:40.030Z,38.51
2022-08-26T08:12:43.590Z,39.28
2022-08-26T08:13:46.529Z,38.15
2022-08-26T08:14:50.222Z,38.17
2022-08-26T08:15:53.016Z,38.53
2022-08-26T08:16:56.186Z,36.31
2022-08-26T08:18:00.942Z,35.53
2022-08-26T08:19:04.003Z,35.32
2022-08-26T08:20:09.002Z,35.23
2022-08-26T08:21:21.669Z,35.25
2022-08-26T08:22:25.660Z,35.83
2022-08-26T08:23:31.851Z,34.93
2022-08-26T08:24:35.558Z,35.34
2022-08-26T08:25:38.629Z,34.05
2022-08-26T08:26:42.013Z,33.64
2022-08-26T08:27:51.102Z,34.52
2022-08-26T08:28:55.794Z,34.69
2022-08-26T08:29:58.639Z,35.19
2022-08-26T08:31:02.350Z,34.63
2022-08-26T08:32:06.596Z,34.11
2022-08-26T08:33:14.570Z,33.41
2022-08-26T08:34:18.419Z,32.94
2022-08-26T08:35:23.228Z,33.35
2022-08-26T08:36:26.281Z,34.19
2022-08-26T08:37:39.126Z,36.02
2022-08-26T08:38:42.740Z,35.28
2022-08-26T08:39:46.317Z,34.87
2022-08-26T08:40:51.773Z,35.86
2022-08-26T08:42:30.606Z,34.27
2022-08-26T08:43:42.178Z,34.61
2022-08-26T08:44:52.101Z,33.49
2022-08-26T08:46:04.410Z,33.76
2022-08-26T08:47:19.575Z,32.86
2022-08-26T08:48:33.643Z,33.21
2022-08-26T08:49:36.632Z,33.59
2022-08-26T08:50:50.330Z,34.05
2022-08-26T08:52:07.797Z,33.34
2022-08-26T08:53:18.002Z,35.07
2022-08-26T08:54:22.027Z,35.77
2022-08-26T08:55:31.602Z,34.89
2022-08-26T08:56:43.137Z,34.14
2022-08-26T08:58:05.834Z,33.23
2022-08-26T08:59:16.721Z,33.07
2022-08-26T09:00:30.265Z,33.42
2022-08-26T09:01:53.941Z,32.86
2022-08-26T09:03:04.031Z,31.46
2022-08-26T09:04:17.222Z,32.01
2022-08-26T09:05:35.760Z,32.13
2022-08-26T09:06:39.108Z,32.43
2022-08-26T09:07:52.761Z,31.32
2022-08-26T09:08:56.669Z,31.46
2022-08-26T09:10:39.699Z,31.13
2022-08-26T09:11:43.651Z,29.68
2022-08-26T09:12:48.328Z,29.17
2022-08-26T09:13:54.660Z,31.84
2022-08-26T09:15:04.050Z,32.85
2022-08-26T09:16:25.062Z,33.15
2022-08-26T09:17:44.687Z,32.98
2022-08-26T09:19:14.728Z,33.23
2022-08-26T09:20:33.998Z,30.71
2022-08-26T09:21:37.742Z,31.88
2022-08-26T09:22:44.184Z,29.87
2022-08-26T09:23:49.674Z,30.24
2022-08-26T09:24:53.090Z,30.75
2022-08-26T09:25:57.517Z,31.54
2022-08-26T09:27:01.223Z,29.58
2022-08-26T09:28:15.334Z,29.60
2022-08-26T09:29:27.535Z,28.90
2022-08-26T09:30:35.030Z,30.66
2022-08-26T09:31:42.396Z,29.87
2022-08-26T09:32:59.134Z,29.62
2022-08-26T09:34:17.324Z,29.17
2022-08-26T09:35:39.710Z,29.24
2022-08-26T09:36:49.239Z,29.34
2022-08-26T09:39:00.341Z,29.49
2022-08-26T09:40:34.861Z,28.82
2022-08-26T09:41:38.071Z,28.22
2022-08-26T09:42:40.905Z,30.19
2022-08-26T09:44:14.614Z,32.33
2022-08-26T09:45:28.567Z,29.79
2022-08-26T09:46:33.349Z,28.64
2022-08-26T09:47:48.354Z,27.33
2022-08-26T09:48:51.750Z,26.85
2022-08-26T09:50:34.622Z,29.01
2022-08-26T09:51:37.751Z,27.72
2022-08-26T09:52:45.542Z,26.86
2022-08-26T09:53:58.027Z,28.56
2022-08-26T09:55:06.862Z,28.10
2022-08-26T09:56:29.292Z,27.65
2022-08-26T09:57:44.940Z,28.28
2022-08-26T09:58:48.545Z,27.38
2022-08-26T09:59:51.688Z,27.13
2022-08-26T10:00:58.032Z,28.99
2022-08-26T10:02:32.740Z,28.86
2022-08-26T10:03:39.836Z,26.83
2022-08-26T10:04:51.514Z,26.13
2022-08-26T10:06:00.995Z,29.27
2022-08-26T10:07:08.418Z,27.41
2022-08-26T10:08:25.151Z,25.89
2022-08-26T10:09:30.015Z,25.87
2022-08-26T10:10:40.566Z,26.17
2022-08-26T10:11:55.574Z,25.72
2022-08-26T10:13:29.523Z,25.88
2022-08-26T10:14:46.956Z,24.84
2022-08-26T10:16:16.688Z,24.84
2022-08-26T10:17:37.344Z,25.22
2022-08-26T10:18:48.523Z,25.17
2022-08-26T10:19:59.613Z,23.91
2022-08-26T10:21:13.224Z,23.14
2022-08-26T10:22:26.026Z,23.63
2022-08-26T10:23:33.039Z,22.79
2022-08-26T10:24:44.419Z,23.18
2022-08-26T10:26:05.375Z,22.94
2022-08-26T10:27:12.732Z,23.22
2022-08-26T10:28:30.335Z,21.99
2022-08-26T10:29:44.682Z,21.20
2022-08-26T10:30:56.885Z,22.36
2022-08-26T10:32:07.210Z,22.44
2022-08-26T10:33:13.392Z,23.68
2022-08-26T10:34:18.331Z,23.22
2022-08-26T10:35:24.559Z,23.90
2022-08-26T10:37:14.784Z,25.41
2022-08-26T10:38:17.418Z,23.69
2022-08-26T10:39:29.677Z,25.03
2022-08-26T10:40:50.327Z,25.35
2022-08-26T10:42:05.341Z,21.75
2022-08-26T10:43:34.776Z,21.28
2022-08-26T10:44:43.846Z,23.29
2022-08-26T10:45:53.229Z,21.41
2022-08-26T10:47:18.797Z,23.07
2022-08-26T10:48:56.755Z,22.88
2022-08-26T10:50:05.199Z,22.39
2022-08-26T10:51:12.780Z,21.98
2022-08-26T10:52:39.625Z,22.03
2022-08-26T10:54:01.902Z,22.23
2022-08-26T10:55:17.572Z,21.24
2022-08-26T10:56:48.596Z,21.16
2022-08-26T10:58:26.220Z,19.10
2022-08-26T10:59:51.669Z,21.71
2022-08-26T11:01:43.159Z,19.86
2022-08-26T11:02:50.571Z,20.20
2022-08-26T11:04:19.451Z,20.34
2022-08-26T11:05:25.532Z,21.20
2022-08-26T11:06:31.547Z,20.47
2022-08-26T11:07:46.466Z,21.43
2022-08-26T11:08:54.644Z,19.79
2022-08-26T11:10:07.371Z,19.97
2022-08-26T11:11:10.260Z,20.76
2022-08-26T11:12:35.384Z,19.94
2022-08-26T11:13:56.536Z,20.34
2022-08-26T11:14:59.709Z,19.58
2022-08-26T11:16:02.799Z,18.92
2022-08-26T11:17:12.107Z,18.95
2022-08-26T11:18:37.732Z,19.06
2022-08-26T11:19:59.622Z,20.95
2022-08-26T11:21:47.709Z,20.87
2022-08-26T11:22:54.958Z,19.77
2022-08-26T11:23:57.720Z,19.72
2022-08-26T11:25:04.394Z,19.96
2022-08-26T11:26:35.869Z,17.97
2022-08-26T11:27:46.626Z,18.65
2022-08-26T11:28:53.838Z,18.59
2022-08-26T11:30:10.071Z,19.04
2022-08-26T11:31:19.115Z,18.88
2022-08-26T11:32:45.215Z,19.77
2022-08-26T11:33:58.128Z,20.03
2022-08-26T11:35:19.888Z,18.79
2022-08-26T11:36:36.110Z,18.90
2022-08-26T11:37:48.495Z,17.72
2022-08-26T11:38:51.744Z,17.24
2022-08-26T11:39:57.303Z,18.48
2022-08-26T11:41:09.167Z,20.18
2022-08-26T11:42:32.210Z,19.97
2022-08-26T11:43:36.738Z,19.36
2022-08-26T11:44:49.343Z,17.83
2022-08-26T11:46:04.147Z,19.78
2022-08-26T11:47:11.504Z,20.07
2022-08-26T11:48:17.162Z,17.43
2022-08-26T11:49:20.358Z,19.02
2022-08-26T11:50:26.694Z,18.58
2022-08-26T11:51:32.003Z,18.85
2022-08-26T11:52:35.910Z,19.89
2022-08-26T11:53:47.205Z,21.45
2022-08-26T11:55:08.105Z,19.37
2022-08-26T11:56:33.420Z,18.47
2022-08-26T11:57:44.943Z,20.08
2022-08-26T11:58:48.488Z,19.14
2022-08-26T11:59:51.471Z,20.23
2022-08-26T12:01:01.885Z,19.03
2022-08-26T12:02:15.836Z,19.10
2022-08-26T12:03:35.962Z,18.75
2022-08-26T12:04:43.517Z,20.71
2022-08-26T12:05:49.754Z,18.60
2022-08-26T12:06:53.709Z,18.96
2022-08-26T12:07:57.322Z,19.39
2022-08-26T12:09:03.304Z,20.21
2022-08-26T12:10:11.110Z,19.55
2022-08-26T12:11:29.238Z,18.92
2022-08-26T12:12:36.033Z,20.24
2022-08-26T12:13:39.401Z,20.41
2022-08-26T12:14:43.883Z,21.26
2022-08-26T12:15:57.511Z,20.96
2022-08-26T12:17:14.185Z,21.68
2022-08-26T12:18:30.166Z,19.30
2022-08-26T12:19:34.510Z,20.50
2022-08-26T12:20:46.678Z,19.78
2022-08-26T12:21:49.873Z,21.39
2022-08-26T12:22:52.805Z,20.86
2022-08-26T12:24:00.414Z,21.06
2022-08-26T12:25:09.657Z,19.95
2022-08-26T12:26:21.480Z,20.82
2022-08-26T12:27:54.058Z,20.22
2022-08-26T12:29:00.555Z,19.87
2022-08-26T12:30:14.401Z,21.50
2022-08-26T12:31:43.331Z,21.60
2022-08-26T12:33:13.333Z,20.56
2022-08-26T12:34:28.614Z,19.57
2022-08-26T12:35:35.761Z,22.09
2022-08-26T12:36:46.909Z,21.36
2022-08-26T12:37:53.570Z,19.66
2022-08-26T12:38:58.425Z,20.85
2022-08-26T12:40:36.047Z,19.49
2022-08-26T12:41:51.094Z,19.75
2022-08-26T12:42:54.750Z,19.68
2022-08-26T12:43:57.814Z,19.05
2022-08-26T12:45:04.601Z,20.47
2022-08-26T12:46:24.858Z,21.96
2022-08-26T12:47:42.405Z,22.00
2022-08-26T12:48:49.513Z,22.05
2022-08-26T12:50:06.246Z,22.33
2022-08-26T12:51:30.753Z,22.17
2022-08-26T12:52:42.208Z,19.69
2022-08-26T12:53:44.957Z,18.95
2022-08-26T12:54:59.785Z,20.12
2022-08-26T12:56:22.771Z,20.14
2022-08-26T12:57:31.479Z,19.89
2022-08-26T12:58:40.226Z,22.18
2022-08-26T12:59:43.209Z,22.11
2022-08-26T13:00:58.059Z,22.96
2022-08-26T13:02:01.178Z,22.93
2022-08-26T13:03:04.356Z,22.49
2022-08-26T13:04:07.209Z,22.83
2022-08-26T13:05:24.697Z,21.85
2022-08-26T13:06:30.197Z,22.30
2022-08-26T13:07:33.296Z,22.23
2022-08-26T13:08:36.454Z,20.58
2022-08-26T13:09:39.349Z,20.35
2022-08-26T13:10:46.974Z,22.15
2022-08-26T13:11:49.690Z,21.60
2022-08-26T13:12:55.855Z,19.72
2022-08-26T13:14:09.100Z,19.51
2022-08-26T13:15:12.900Z,19.82
2022-08-26T13:16:16.206Z,19.25
2022-08-26T13:17:19.212Z,19.16
2022-08-26T13:18:22.338Z,19.76
2022-08-26T13:19:26.751Z,19.47
2022-08-26T13:20:29.952Z,20.66
2022-08-26T13:21:37.387Z,20.98
2022-08-26T13:23:44.923Z,19.56
2022-08-26T13:24:47.935Z,20.11
2022-08-26T13:25:52.039Z,20.47
2022-08-26T13:26:55.112Z,21.23
2022-08-26T13:27:58.323Z,22.58
2022-08-26T13:29:02.451Z,22.89
2022-08-26T13:30:06.256Z,21.01
2022-08-26T13:31:12.737Z,21.65
2022-08-26T13:32:18.256Z,21.30
2022-08-26T13:33:21.845Z,22.52
2022-08-26T13:34:24.805Z,22.43
2022-08-26T13:35:29.778Z,21.24
2022-08-26T13:36:32.823Z,20.79
2022-08-26T13:37:36.569Z,21.09
2022-08-26T13:38:39.538Z,22.74
2022-08-26T13:39:42.648Z,22.05
2022-08-26T13:40:45.619Z,21.55
2022-08-26T13:41:49.481Z,22.34
2022-08-26T13:42:52.513Z,22.79
2022-08-26T13:43:55.416Z,21.93
2022-08-26T13:44:59.174Z,22.01
2022-08-26T13:46:02.305Z,21.43
2022-08-26T13:47:06.583Z,21.48
2022-08-26T13:48:09.812Z,23.96
2022-08-26T13:49:12.961Z,23.54
2022-08-26T13:50:16.002Z,23.55
2022-08-26T13:51:20.708Z,24.29
2022-08-26T13:52:30.102Z,22.99
2022-08-26T13:53:33.492Z,21.70
2022-08-26T13:54:36.491Z,21.76
2022-08-26T13:55:39.449Z,21.73
2022-08-26T13:56:42.342Z,21.11
2022-08-26T13:57:45.263Z,21.12
2022-08-26T13:58:49.542Z,21.42
2022-08-26T13:59:54.234Z,21.98
2022-08-26T14:00:58.133Z,21.73
2022-08-26T14:02:03.192Z,21.66
2022-08-26T14:03:11.350Z,20.49
2022-08-26T14:04:16.066Z,21.28
2022-08-26T14:05:28.645Z,21.72
2022-08-26T14:06:32.598Z,21.81
2022-08-26T14:07:35.909Z,22.35
2022-08-26T14:08:40.785Z,22.49
2022-08-26T14:09:44.068Z,21.87
2022-08-26T14:11:54.782Z,23.25
2022-08-26T14:12:58.543Z,21.86
2022-08-26T14:14:01.715Z,21.54
2022-08-26T14:15:04.966Z,22.46
2022-08-26T14:16:24.772Z,23.40
2022-08-26T14:17:28.031Z,23.67
2022-08-26T14:18:41.801Z,23.47
2022-08-26T14:19:49.794Z,23.55
2022-08-26T14:20:52.965Z,24.26
2022-08-26T14:21:56.355Z,22.83
2022-08-26T14:23:15.190Z,22.49
2022-08-26T14:24:18.195Z,23.07
2022-08-26T14:25:25.483Z,23.27
2022-08-26T14:26:29.886Z,23.00
2022-08-26T14:27:35.225Z,22.73
2022-08-26T14:28:40.210Z,22.77
2022-08-26T14:29:46.955Z,24.66
2022-08-26T14:30:54.218Z,25.46
2022-08-26T14:31:58.937Z,25.92
2022-08-26T14:33:01.797Z,25.24
2022-08-26T14:34:07.172Z,25.02
2022-08-26T14:35:13.520Z,24.52
2022-08-26T14:36:28.680Z,24.15
2022-08-26T14:37:32.148Z,24.76